sensor_id;sensor_type;location;lat;lon;timestamp;temperature;humidity
69208;SHT31;70114;47.690;8.898;2023-09-30T00:02:01;18.96;68.87
69208;SHT31;70114;47.690;8.898;2023-09-30T00:04:26;19.07;68.16
69208;SHT31;70114;47.690;8.898;2023-09-30T00:06:57;19.07;68.26
69208;SHT31;70114;47.690;8.898;2023-09-30T00:09:26;19.11;68.76
69208;SHT31;70114;47.690;8.898;2023-09-30T00:11:52;19.13;68.84
69208;SHT31;70114;47.690;8.898;2023-09-30T00:14:20;19.10;68.73
69208;SHT31;70114;47.690;8.898;2023-09-30T00:16:46;19.14;68.28
69208;SHT31;70114;47.690;8.898;2023-09-30T00:19:11;19.13;68.40
69208;SHT31;70114;47.690;8.898;2023-09-30T00:21:39;19.13;68.50
69208;SHT31;70114;47.690;8.898;2023-09-30T00:24:05;19.10;68.57
69208;SHT31;70114;47.690;8.898;2023-09-30T00:26:30;19.13;68.42
69208;SHT31;70114;47.690;8.898;2023-09-30T00:28:59;19.14;68.22
69208;SHT31;70114;47.690;8.898;2023-09-30T00:31:25;19.11;68.33
69208;SHT31;70114;47.690;8.898;2023-09-30T00:33:50;19.07;68.37
69208;SHT31;70114;47.690;8.898;2023-09-30T00:36:16;19.10;68.32
69208;SHT31;70114;47.690;8.898;2023-09-30T00:38:42;19.10;68.28
69208;SHT31;70114;47.690;8.898;2023-09-30T00:41:11;19.08;68.30
69208;SHT31;70114;47.690;8.898;2023-09-30T00:43:37;19.06;68.04
69208;SHT31;70114;47.690;8.898;2023-09-30T00:46:09;19.03;68.03
69208;SHT31;70114;47.690;8.898;2023-09-30T00:48:47;19.00;68.67
69208;SHT31;70114;47.690;8.898;2023-09-30T00:51:13;19.00;68.50
69208;SHT31;70114;47.690;8.898;2023-09-30T00:53:39;18.99;68.60
69208;SHT31;70114;47.690;8.898;2023-09-30T00:56:06;19.00;68.80
69208;SHT31;70114;47.690;8.898;2023-09-30T00:58:34;18.99;68.60
69208;SHT31;70114;47.690;8.898;2023-09-30T01:00:59;18.94;68.88
69208;SHT31;70114;47.690;8.898;2023-09-30T01:03:25;18.93;69.40
69208;SHT31;70114;47.690;8.898;2023-09-30T01:05:51;18.87;69.38
69208;SHT31;70114;47.690;8.898;2023-09-30T01:08:19;18.89;69.04
69208;SHT31;70114;47.690;8.898;2023-09-30T01:10:47;18.84;69.13
69208;SHT31;70114;47.690;8.898;2023-09-30T01:13:13;18.75;69.20
69208;SHT31;70114;47.690;8.898;2023-09-30T01:15:39;18.51;69.16
69208;SHT31;70114;47.690;8.898;2023-09-30T01:18:05;18.36;69.91
69208;SHT31;70114;47.690;8.898;2023-09-30T01:20:33;18.25;70.84
69208;SHT31;70114;47.690;8.898;2023-09-30T01:23:00;18.32;70.16
69208;SHT31;70114;47.690;8.898;2023-09-30T01:25:27;18.31;70.37
69208;SHT31;70114;47.690;8.898;2023-09-30T01:27:53;18.29;70.05
69208;SHT31;70114;47.690;8.898;2023-09-30T01:30:19;18.32;70.14
69208;SHT31;70114;47.690;8.898;2023-09-30T01:32:47;18.28;70.16
69208;SHT31;70114;47.690;8.898;2023-09-30T01:35:13;18.31;70.07
69208;SHT31;70114;47.690;8.898;2023-09-30T01:37:39;18.28;70.20
69208;SHT31;70114;47.690;8.898;2023-09-30T01:40:08;18.21;70.18
69208;SHT31;70114;47.690;8.898;2023-09-30T01:42:37;18.21;70.06
69208;SHT31;70114;47.690;8.898;2023-09-30T01:45:03;18.05;70.43
69208;SHT31;70114;47.690;8.898;2023-09-30T01:47:29;18.19;69.59
69208;SHT31;70114;47.690;8.898;2023-09-30T01:49:59;18.01;70.57
69208;SHT31;70114;47.690;8.898;2023-09-30T01:52:27;17.63;71.55
69208;SHT31;70114;47.690;8.898;2023-09-30T01:54:53;17.76;71.07
69208;SHT31;70114;47.690;8.898;2023-09-30T01:57:19;17.91;70.45
69208;SHT31;70114;47.690;8.898;2023-09-30T01:59:45;17.98;70.49
69208;SHT31;70114;47.690;8.898;2023-09-30T02:02:10;17.96;70.71
69208;SHT31;70114;47.690;8.898;2023-09-30T02:04:36;18.04;70.56
69208;SHT31;70114;47.690;8.898;2023-09-30T02:07:02;18.07;70.73
69208;SHT31;70114;47.690;8.898;2023-09-30T02:09:27;18.11;70.67
69208;SHT31;70114;47.690;8.898;2023-09-30T02:11:53;18.09;70.59
69208;SHT31;70114;47.690;8.898;2023-09-30T02:14:20;18.11;70.48
69208;SHT31;70114;47.690;8.898;2023-09-30T02:16:45;18.08;70.59
69208;SHT31;70114;47.690;8.898;2023-09-30T02:19:11;18.09;70.53
69208;SHT31;70114;47.690;8.898;2023-09-30T02:21:38;18.04;70.70
69208;SHT31;70114;47.690;8.898;2023-09-30T02:24:04;18.07;70.54
69208;SHT31;70114;47.690;8.898;2023-09-30T02:26:31;18.02;70.25
69208;SHT31;70114;47.690;8.898;2023-09-30T02:28:58;18.01;69.81
69208;SHT31;70114;47.690;8.898;2023-09-30T02:31:23;17.88;69.88
69208;SHT31;70114;47.690;8.898;2023-09-30T02:33:49;17.86;70.43
69208;SHT31;70114;47.690;8.898;2023-09-30T02:36:15;17.88;70.02
69208;SHT31;70114;47.690;8.898;2023-09-30T02:38:41;17.84;70.00
69208;SHT31;70114;47.690;8.898;2023-09-30T02:41:07;17.90;70.12
69208;SHT31;70114;47.690;8.898;2023-09-30T02:43:32;17.91;70.56
69208;SHT31;70114;47.690;8.898;2023-09-30T02:45:58;17.96;70.46
69208;SHT31;70114;47.690;8.898;2023-09-30T02:48:24;17.93;70.81
69208;SHT31;70114;47.690;8.898;2023-09-30T02:50:49;17.91;71.08
69208;SHT31;70114;47.690;8.898;2023-09-30T02:53:15;17.90;71.54
69208;SHT31;70114;47.690;8.898;2023-09-30T02:55:43;17.88;71.72
69208;SHT31;70114;47.690;8.898;2023-09-30T02:58:10;17.88;71.52
69208;SHT31;70114;47.690;8.898;2023-09-30T03:00:36;17.90;71.01
69208;SHT31;70114;47.690;8.898;2023-09-30T03:03:03;17.79;71.44
69208;SHT31;70114;47.690;8.898;2023-09-30T03:05:30;17.84;71.21
69208;SHT31;70114;47.690;8.898;2023-09-30T03:07:59;17.86;71.18
69208;SHT31;70114;47.690;8.898;2023-09-30T03:10:26;17.86;70.92
69208;SHT31;70114;47.690;8.898;2023-09-30T03:12:58;17.83;70.98
69208;SHT31;70114;47.690;8.898;2023-09-30T03:15:27;17.84;70.94
69208;SHT31;70114;47.690;8.898;2023-09-30T03:17:57;17.77;70.78
69208;SHT31;70114;47.690;8.898;2023-09-30T03:20:22;17.79;70.88
69208;SHT31;70114;47.690;8.898;2023-09-30T03:22:50;17.84;71.11
69208;SHT31;70114;47.690;8.898;2023-09-30T03:25:17;17.83;71.52
69208;SHT31;70114;47.690;8.898;2023-09-30T03:27:49;17.83;71.68
69208;SHT31;70114;47.690;8.898;2023-09-30T03:30:16;17.80;72.13
69208;SHT31;70114;47.690;8.898;2023-09-30T03:32:42;17.81;71.76
69208;SHT31;70114;47.690;8.898;2023-09-30T03:35:09;17.74;72.10
69208;SHT31;70114;47.690;8.898;2023-09-30T03:37:46;17.76;72.10
69208;SHT31;70114;47.690;8.898;2023-09-30T03:40:12;17.77;72.05
69208;SHT31;70114;47.690;8.898;2023-09-30T03:42:45;17.77;72.25
69208;SHT31;70114;47.690;8.898;2023-09-30T03:45:11;17.73;72.22
69208;SHT31;70114;47.690;8.898;2023-09-30T03:47:40;17.80;72.07
69208;SHT31;70114;47.690;8.898;2023-09-30T03:50:06;17.63;72.16
69208;SHT31;70114;47.690;8.898;2023-09-30T03:52:38;17.52;71.92
69208;SHT31;70114;47.690;8.898;2023-09-30T03:55:04;17.35;71.57
69208;SHT31;70114;47.690;8.898;2023-09-30T03:57:33;17.28;72.03
69208;SHT31;70114;47.690;8.898;2023-09-30T04:00:01;17.38;71.47
69208;SHT31;70114;47.690;8.898;2023-09-30T04:02:31;17.23;72.22
69208;SHT31;70114;47.690;8.898;2023-09-30T04:04:56;17.31;71.95
69208;SHT31;70114;47.690;8.898;2023-09-30T04:07:23;17.42;71.89
69208;SHT31;70114;47.690;8.898;2023-09-30T04:09:55;17.50;71.33
69208;SHT31;70114;47.690;8.898;2023-09-30T04:12:21;17.49;71.37
69208;SHT31;70114;47.690;8.898;2023-09-30T04:14:49;17.59;71.09
69208;SHT31;70114;47.690;8.898;2023-09-30T04:17:14;17.26;72.02
69208;SHT31;70114;47.690;8.898;2023-09-30T04:19:40;17.26;72.09
69208;SHT31;70114;47.690;8.898;2023-09-30T04:22:05;17.39;71.52
69208;SHT31;70114;47.690;8.898;2023-09-30T04:24:31;17.08;72.81
69208;SHT31;70114;47.690;8.898;2023-09-30T04:27:00;16.75;73.79
69208;SHT31;70114;47.690;8.898;2023-09-30T04:29:29;16.70;74.18
69208;SHT31;70114;47.690;8.898;2023-09-30T04:31:56;16.94;73.12
69208;SHT31;70114;47.690;8.898;2023-09-30T04:34:21;17.02;72.76
69208;SHT31;70114;47.690;8.898;2023-09-30T04:36:47;17.12;72.52
69208;SHT31;70114;47.690;8.898;2023-09-30T04:39:13;17.14;72.41
69208;SHT31;70114;47.690;8.898;2023-09-30T04:41:40;17.01;72.82
69208;SHT31;70114;47.690;8.898;2023-09-30T04:44:06;16.92;72.60
69208;SHT31;70114;47.690;8.898;2023-09-30T04:46:32;16.96;72.43
69208;SHT31;70114;47.690;8.898;2023-09-30T04:48:57;17.05;72.41
69208;SHT31;70114;47.690;8.898;2023-09-30T04:51:23;17.10;72.09
69208;SHT31;70114;47.690;8.898;2023-09-30T04:53:51;17.16;72.62
69208;SHT31;70114;47.690;8.898;2023-09-30T04:56:19;17.15;72.85
69208;SHT31;70114;47.690;8.898;2023-09-30T04:58:44;16.91;74.55
69208;SHT31;70114;47.690;8.898;2023-09-30T05:01:12;16.91;74.37
69208;SHT31;70114;47.690;8.898;2023-09-30T05:03:37;16.96;73.86
69208;SHT31;70114;47.690;8.898;2023-09-30T05:06:03;17.00;73.13
69208;SHT31;70114;47.690;8.898;2023-09-30T05:08:29;17.05;73.46
69208;SHT31;70114;47.690;8.898;2023-09-30T05:10:54;17.10;73.60
69208;SHT31;70114;47.690;8.898;2023-09-30T05:13:21;17.16;73.60
69208;SHT31;70114;47.690;8.898;2023-09-30T05:15:49;17.18;73.43
69208;SHT31;70114;47.690;8.898;2023-09-30T05:18:14;17.16;73.05
69208;SHT31;70114;47.690;8.898;2023-09-30T05:20:40;17.07;72.47
69208;SHT31;70114;47.690;8.898;2023-09-30T05:23:06;17.12;72.32
69208;SHT31;70114;47.690;8.898;2023-09-30T05:25:41;17.01;72.93
69208;SHT31;70114;47.690;8.898;2023-09-30T05:28:08;17.04;72.88
69208;SHT31;70114;47.690;8.898;2023-09-30T05:30:34;17.16;72.63
69208;SHT31;70114;47.690;8.898;2023-09-30T05:33:01;17.21;72.87
69208;SHT31;70114;47.690;8.898;2023-09-30T05:35:29;17.23;73.44
69208;SHT31;70114;47.690;8.898;2023-09-30T05:37:57;17.28;73.51
69208;SHT31;70114;47.690;8.898;2023-09-30T05:40:22;17.31;73.55
69208;SHT31;70114;47.690;8.898;2023-09-30T05:42:54;17.26;72.99
69208;SHT31;70114;47.690;8.898;2023-09-30T05:45:22;17.28;72.50
69208;SHT31;70114;47.690;8.898;2023-09-30T05:47:54;17.26;72.25
69208;SHT31;70114;47.690;8.898;2023-09-30T05:50:21;17.33;72.17
69208;SHT31;70114;47.690;8.898;2023-09-30T05:52:52;17.32;72.20
69208;SHT31;70114;47.690;8.898;2023-09-30T05:55:18;17.10;72.99
69208;SHT31;70114;47.690;8.898;2023-09-30T05:57:50;17.15;72.68
69208;SHT31;70114;47.690;8.898;2023-09-30T06:00:18;16.96;73.27
69208;SHT31;70114;47.690;8.898;2023-09-30T06:02:48;17.15;72.67
69208;SHT31;70114;47.690;8.898;2023-09-30T06:05:15;17.23;72.67
69208;SHT31;70114;47.690;8.898;2023-09-30T06:07:48;17.28;72.93
69208;SHT31;70114;47.690;8.898;2023-09-30T06:10:14;17.26;72.69
69208;SHT31;70114;47.690;8.898;2023-09-30T06:12:44;17.28;73.01
69208;SHT31;70114;47.690;8.898;2023-09-30T06:15:10;17.25;73.47
69208;SHT31;70114;47.690;8.898;2023-09-30T06:17:36;17.25;73.66
69208;SHT31;70114;47.690;8.898;2023-09-30T06:20:04;17.36;72.54
69208;SHT31;70114;47.690;8.898;2023-09-30T06:22:42;17.43;73.31
69208;SHT31;70114;47.690;8.898;2023-09-30T06:25:09;17.47;73.68
69208;SHT31;70114;47.690;8.898;2023-09-30T06:27:34;17.52;73.59
69208;SHT31;70114;47.690;8.898;2023-09-30T06:30:00;17.46;73.89
69208;SHT31;70114;47.690;8.898;2023-09-30T06:32:25;17.59;72.87
69208;SHT31;70114;47.690;8.898;2023-09-30T06:34:51;17.69;72.24
69208;SHT31;70114;47.690;8.898;2023-09-30T06:37:18;17.59;72.54
69208;SHT31;70114;47.690;8.898;2023-09-30T06:39:43;17.62;72.22
69208;SHT31;70114;47.690;8.898;2023-09-30T06:42:09;17.74;71.93
69208;SHT31;70114;47.690;8.898;2023-09-30T06:44:35;17.80;70.97
69208;SHT31;70114;47.690;8.898;2023-09-30T06:47:00;17.86;71.61
69208;SHT31;70114;47.690;8.898;2023-09-30T06:49:26;17.96;72.49
69208;SHT31;70114;47.690;8.898;2023-09-30T06:51:51;18.04;72.65
69208;SHT31;70114;47.690;8.898;2023-09-30T06:54:17;18.14;71.85
69208;SHT31;70114;47.690;8.898;2023-09-30T06:56:43;18.25;71.05
69208;SHT31;70114;47.690;8.898;2023-09-30T06:59:08;18.41;70.97
69208;SHT31;70114;47.690;8.898;2023-09-30T07:01:34;18.65;70.17
69208;SHT31;70114;47.690;8.898;2023-09-30T07:03:59;18.82;69.32
69208;SHT31;70114;47.690;8.898;2023-09-30T07:06:26;18.83;68.73
69208;SHT31;70114;47.690;8.898;2023-09-30T07:08:52;18.59;68.04
69208;SHT31;70114;47.690;8.898;2023-09-30T07:11:28;18.31;68.10
69208;SHT31;70114;47.690;8.898;2023-09-30T07:14:03;18.48;68.07
69208;SHT31;70114;47.690;8.898;2023-09-30T07:16:29;18.38;67.74
69208;SHT31;70114;47.690;8.898;2023-09-30T07:18:54;18.60;67.32
69208;SHT31;70114;47.690;8.898;2023-09-30T07:21:20;18.65;67.54
69208;SHT31;70114;47.690;8.898;2023-09-30T07:23:46;18.39;68.07
69208;SHT31;70114;47.690;8.898;2023-09-30T07:26:13;18.41;68.70
69208;SHT31;70114;47.690;8.898;2023-09-30T07:28:40;18.56;68.88
69208;SHT31;70114;47.690;8.898;2023-09-30T07:31:05;18.69;68.39
69208;SHT31;70114;47.690;8.898;2023-09-30T07:33:31;18.83;67.93
69208;SHT31;70114;47.690;8.898;2023-09-30T07:35:57;18.93;67.60
69208;SHT31;70114;47.690;8.898;2023-09-30T07:38:22;19.00;66.94
69208;SHT31;70114;47.690;8.898;2023-09-30T07:40:48;19.04;67.10
69208;SHT31;70114;47.690;8.898;2023-09-30T07:43:16;19.08;66.89
69208;SHT31;70114;47.690;8.898;2023-09-30T07:45:43;18.99;67.07
69208;SHT31;70114;47.690;8.898;2023-09-30T07:48:09;18.89;65.91
69208;SHT31;70114;47.690;8.898;2023-09-30T07:50:36;19.21;66.20
69208;SHT31;70114;47.690;8.898;2023-09-30T07:53:02;19.21;66.30
69208;SHT31;70114;47.690;8.898;2023-09-30T07:55:27;19.45;65.50
69208;SHT31;70114;47.690;8.898;2023-09-30T07:57:53;19.54;65.71
69208;SHT31;70114;47.690;8.898;2023-09-30T08:00:19;19.62;65.28
69208;SHT31;70114;47.690;8.898;2023-09-30T08:02:48;19.76;64.39
69208;SHT31;70114;47.690;8.898;2023-09-30T08:05:15;19.79;63.15
69208;SHT31;70114;47.690;8.898;2023-09-30T08:07:43;19.75;64.33
69208;SHT31;70114;47.690;8.898;2023-09-30T08:10:14;19.85;63.62
69208;SHT31;70114;47.690;8.898;2023-09-30T08:12:42;20.00;62.96
69208;SHT31;70114;47.690;8.898;2023-09-30T08:15:08;20.03;62.67
69208;SHT31;70114;47.690;8.898;2023-09-30T08:17:37;20.12;62.56
69208;SHT31;70114;47.690;8.898;2023-09-30T08:20:02;20.17;62.77
69208;SHT31;70114;47.690;8.898;2023-09-30T08:22:31;20.16;62.82
69208;SHT31;70114;47.690;8.898;2023-09-30T08:24:57;20.21;62.51
69208;SHT31;70114;47.690;8.898;2023-09-30T08:27:23;20.23;62.65
69208;SHT31;70114;47.690;8.898;2023-09-30T08:29:51;20.12;63.71
69208;SHT31;70114;47.690;8.898;2023-09-30T08:32:17;20.06;63.84
69208;SHT31;70114;47.690;8.898;2023-09-30T08:34:46;20.34;63.42
69208;SHT31;70114;47.690;8.898;2023-09-30T08:37:14;20.41;63.49
69208;SHT31;70114;47.690;8.898;2023-09-30T08:39:40;20.36;63.81
69208;SHT31;70114;47.690;8.898;2023-09-30T08:42:12;19.96;64.25
69208;SHT31;70114;47.690;8.898;2023-09-30T08:44:39;20.24;62.60
69208;SHT31;70114;47.690;8.898;2023-09-30T08:47:06;20.31;62.55
69208;SHT31;70114;47.690;8.898;2023-09-30T08:49:37;20.44;61.73
69208;SHT31;70114;47.690;8.898;2023-09-30T08:52:14;20.58;61.89
69208;SHT31;70114;47.690;8.898;2023-09-30T08:54:42;20.48;61.82
69208;SHT31;70114;47.690;8.898;2023-09-30T08:57:12;20.63;61.21
69208;SHT31;70114;47.690;8.898;2023-09-30T08:59:44;20.67;60.61
69208;SHT31;70114;47.690;8.898;2023-09-30T09:02:11;20.72;60.38
69208;SHT31;70114;47.690;8.898;2023-09-30T09:04:37;20.74;60.71
69208;SHT31;70114;47.690;8.898;2023-09-30T09:07:02;20.69;61.61
69208;SHT31;70114;47.690;8.898;2023-09-30T09:09:28;20.86;62.57
69208;SHT31;70114;47.690;8.898;2023-09-30T09:11:53;20.86;62.03
69208;SHT31;70114;47.690;8.898;2023-09-30T09:14:19;20.84;62.28
69208;SHT31;70114;47.690;8.898;2023-09-30T09:16:55;20.81;62.07
69208;SHT31;70114;47.690;8.898;2023-09-30T09:19:21;20.51;63.38
69208;SHT31;70114;47.690;8.898;2023-09-30T09:21:54;20.64;63.15
69208;SHT31;70114;47.690;8.898;2023-09-30T09:24:47;20.81;63.33
69208;SHT31;70114;47.690;8.898;2023-09-30T09:27:13;20.71;62.23
69208;SHT31;70114;47.690;8.898;2023-09-30T09:29:42;20.76;62.72
69208;SHT31;70114;47.690;8.898;2023-09-30T09:32:12;20.75;63.13
69208;SHT31;70114;47.690;8.898;2023-09-30T09:34:39;20.45;61.63
69208;SHT31;70114;47.690;8.898;2023-09-30T09:37:19;21.03;61.52
69208;SHT31;70114;47.690;8.898;2023-09-30T09:39:55;21.20;61.27
69208;SHT31;70114;47.690;8.898;2023-09-30T09:42:28;21.00;58.83
69208;SHT31;70114;47.690;8.898;2023-09-30T09:44:56;21.16;59.50
69208;SHT31;70114;47.690;8.898;2023-09-30T09:47:22;20.76;60.11
69208;SHT31;70114;47.690;8.898;2023-09-30T09:49:50;20.20;61.84
69208;SHT31;70114;47.690;8.898;2023-09-30T09:52:16;20.45;62.63
69208;SHT31;70114;47.690;8.898;2023-09-30T09:54:44;20.81;61.47
69208;SHT31;70114;47.690;8.898;2023-09-30T09:57:10;20.49;60.00
69208;SHT31;70114;47.690;8.898;2023-09-30T09:59:39;20.76;60.46
69208;SHT31;70114;47.690;8.898;2023-09-30T10:02:12;21.02;59.93
69208;SHT31;70114;47.690;8.898;2023-09-30T10:04:43;21.12;60.62
69208;SHT31;70114;47.690;8.898;2023-09-30T10:07:13;21.29;59.66
69208;SHT31;70114;47.690;8.898;2023-09-30T10:09:41;21.40;60.32
69208;SHT31;70114;47.690;8.898;2023-09-30T10:12:09;21.43;59.04
69208;SHT31;70114;47.690;8.898;2023-09-30T10:14:35;21.40;58.24
69208;SHT31;70114;47.690;8.898;2023-09-30T10:17:03;21.18;59.42
69208;SHT31;70114;47.690;8.898;2023-09-30T10:19:29;21.13;59.03
69208;SHT31;70114;47.690;8.898;2023-09-30T10:24:50;21.50;59.18
69208;SHT31;70114;47.690;8.898;2023-09-30T10:29:57;20.86;61.47
69208;SHT31;70114;47.690;8.898;2023-09-30T10:35:44;21.61;60.66
69208;SHT31;70114;47.690;8.898;2023-09-30T10:40:53;21.41;61.01
69208;SHT31;70114;47.690;8.898;2023-09-30T10:43:29;21.73;60.33
69208;SHT31;70114;47.690;8.898;2023-09-30T10:45:56;21.82;59.36
69208;SHT31;70114;47.690;8.898;2023-09-30T10:50:52;21.78;59.36
69208;SHT31;70114;47.690;8.898;2023-09-30T10:53:18;21.81;58.36
69208;SHT31;70114;47.690;8.898;2023-09-30T10:56:00;21.85;57.87
69208;SHT31;70114;47.690;8.898;2023-09-30T11:01:17;21.87;59.36
69208;SHT31;70114;47.690;8.898;2023-09-30T11:03:44;22.06;59.53
69208;SHT31;70114;47.690;8.898;2023-09-30T11:06:14;22.09;58.69
69208;SHT31;70114;47.690;8.898;2023-09-30T11:08:45;22.12;58.83
69208;SHT31;70114;47.690;8.898;2023-09-30T11:11:12;22.23;58.32
69208;SHT31;70114;47.690;8.898;2023-09-30T11:13:39;22.22;59.34
69208;SHT31;70114;47.690;8.898;2023-09-30T11:16:05;22.49;59.59
69208;SHT31;70114;47.690;8.898;2023-09-30T11:18:31;22.77;59.12
69208;SHT31;70114;47.690;8.898;2023-09-30T11:21:08;22.53;58.75
69208;SHT31;70114;47.690;8.898;2023-09-30T11:23:36;22.84;56.20
69208;SHT31;70114;47.690;8.898;2023-09-30T11:26:02;22.33;57.46
69208;SHT31;70114;47.690;8.898;2023-09-30T11:28:36;22.53;57.53
69208;SHT31;70114;47.690;8.898;2023-09-30T11:31:02;22.46;56.99
69208;SHT31;70114;47.690;8.898;2023-09-30T11:33:29;22.52;57.49
69208;SHT31;70114;47.690;8.898;2023-09-30T11:36:04;21.71;59.33
69208;SHT31;70114;47.690;8.898;2023-09-30T11:38:31;21.82;58.16
69208;SHT31;70114;47.690;8.898;2023-09-30T11:41:04;21.81;59.38
69208;SHT31;70114;47.690;8.898;2023-09-30T11:43:32;21.54;59.19
69208;SHT31;70114;47.690;8.898;2023-09-30T11:46:11;21.27;59.45
69208;SHT31;70114;47.690;8.898;2023-09-30T11:48:56;20.96;60.96
69208;SHT31;70114;47.690;8.898;2023-09-30T11:51:22;21.33;60.44
69208;SHT31;70114;47.690;8.898;2023-09-30T11:53:51;21.46;59.67
69208;SHT31;70114;47.690;8.898;2023-09-30T11:56:18;20.89;60.62
69208;SHT31;70114;47.690;8.898;2023-09-30T11:58:44;20.75;59.15
69208;SHT31;70114;47.690;8.898;2023-09-30T12:01:11;21.20;59.74
69208;SHT31;70114;47.690;8.898;2023-09-30T12:03:39;21.29;59.06
69208;SHT31;70114;47.690;8.898;2023-09-30T12:06:06;21.36;59.12
69208;SHT31;70114;47.690;8.898;2023-09-30T12:08:31;21.02;60.23
69208;SHT31;70114;47.690;8.898;2023-09-30T12:10:57;21.43;59.53
69208;SHT31;70114;47.690;8.898;2023-09-30T12:13:25;21.57;58.80
69208;SHT31;70114;47.690;8.898;2023-09-30T12:15:50;21.70;58.74
69208;SHT31;70114;47.690;8.898;2023-09-30T12:18:18;21.41;59.16
69208;SHT31;70114;47.690;8.898;2023-09-30T12:20:49;21.29;59.61
69208;SHT31;70114;47.690;8.898;2023-09-30T12:23:14;21.75;58.69
69208;SHT31;70114;47.690;8.898;2023-09-30T12:25:40;21.88;58.24
69208;SHT31;70114;47.690;8.898;2023-09-30T12:28:05;21.91;58.47
69208;SHT31;70114;47.690;8.898;2023-09-30T12:30:31;21.89;58.10
69208;SHT31;70114;47.690;8.898;2023-09-30T12:32:57;22.06;57.47
69208;SHT31;70114;47.690;8.898;2023-09-30T12:35:23;22.08;56.55
69208;SHT31;70114;47.690;8.898;2023-09-30T12:37:49;22.28;56.08
69208;SHT31;70114;47.690;8.898;2023-09-30T12:40:14;22.22;56.25
69208;SHT31;70114;47.690;8.898;2023-09-30T12:42:43;22.70;56.35
69208;SHT31;70114;47.690;8.898;2023-09-30T12:45:09;23.19;54.49
69208;SHT31;70114;47.690;8.898;2023-09-30T12:47:34;23.65;53.94
69208;SHT31;70114;47.690;8.898;2023-09-30T12:49:59;24.11;51.36
69208;SHT31;70114;47.690;8.898;2023-09-30T12:52:25;24.49;51.75
69208;SHT31;70114;47.690;8.898;2023-09-30T12:54:50;24.83;51.09
69208;SHT31;70114;47.690;8.898;2023-09-30T12:57:16;25.03;50.22
69208;SHT31;70114;47.690;8.898;2023-09-30T12:59:46;25.35;49.09
69208;SHT31;70114;47.690;8.898;2023-09-30T13:02:12;25.47;48.38
69208;SHT31;70114;47.690;8.898;2023-09-30T13:04:38;25.64;46.83
69208;SHT31;70114;47.690;8.898;2023-09-30T13:07:09;25.75;47.28
69208;SHT31;70114;47.690;8.898;2023-09-30T13:09:35;25.89;46.65
69208;SHT31;70114;47.690;8.898;2023-09-30T13:12:02;25.97;46.95
69208;SHT31;70114;47.690;8.898;2023-09-30T13:14:27;25.68;47.39
69208;SHT31;70114;47.690;8.898;2023-09-30T13:16:53;26.07;46.92
69208;SHT31;70114;47.690;8.898;2023-09-30T13:19:19;26.40;46.57
69208;SHT31;70114;47.690;8.898;2023-09-30T13:21:47;26.71;45.77
69208;SHT31;70114;47.690;8.898;2023-09-30T13:24:13;26.99;46.20
69208;SHT31;70114;47.690;8.898;2023-09-30T13:26:39;27.20;45.01
69208;SHT31;70114;47.690;8.898;2023-09-30T13:29:04;27.05;45.08
69208;SHT31;70114;47.690;8.898;2023-09-30T13:31:31;26.98;45.18
69208;SHT31;70114;47.690;8.898;2023-09-30T13:33:56;26.98;44.91
69208;SHT31;70114;47.690;8.898;2023-09-30T13:36:22;26.82;44.35
69208;SHT31;70114;47.690;8.898;2023-09-30T13:38:47;26.99;45.15
69208;SHT31;70114;47.690;8.898;2023-09-30T13:41:14;26.90;45.72
69208;SHT31;70114;47.690;8.898;2023-09-30T13:43:41;27.10;44.43
69208;SHT31;70114;47.690;8.898;2023-09-30T13:46:06;25.72;45.56
69208;SHT31;70114;47.690;8.898;2023-09-30T13:48:33;25.52;46.66
69208;SHT31;70114;47.690;8.898;2023-09-30T13:51:06;25.42;46.93
69208;SHT31;70114;47.690;8.898;2023-09-30T13:53:32;25.00;46.95
69208;SHT31;70114;47.690;8.898;2023-09-30T13:55:59;23.74;49.80
69208;SHT31;70114;47.690;8.898;2023-09-30T13:58:24;24.56;49.60
69208;SHT31;70114;47.690;8.898;2023-09-30T14:00:50;24.61;48.87
69208;SHT31;70114;47.690;8.898;2023-09-30T14:03:19;24.72;49.59
69208;SHT31;70114;47.690;8.898;2023-09-30T14:05:47;24.83;48.42
69208;SHT31;70114;47.690;8.898;2023-09-30T14:08:13;24.31;50.29
69208;SHT31;70114;47.690;8.898;2023-09-30T14:10:38;24.35;49.54
69208;SHT31;70114;47.690;8.898;2023-09-30T14:13:04;24.10;50.61
69208;SHT31;70114;47.690;8.898;2023-09-30T14:15:30;23.74;52.30
69208;SHT31;70114;47.690;8.898;2023-09-30T14:17:58;24.15;51.25
69208;SHT31;70114;47.690;8.898;2023-09-30T14:20:24;23.08;53.92
69208;SHT31;70114;47.690;8.898;2023-09-30T14:22:51;23.74;52.22
69208;SHT31;70114;47.690;8.898;2023-09-30T14:25:17;23.94;51.50
69208;SHT31;70114;47.690;8.898;2023-09-30T14:27:43;24.08;51.23
69208;SHT31;70114;47.690;8.898;2023-09-30T14:30:08;24.27;51.21
69208;SHT31;70114;47.690;8.898;2023-09-30T14:32:34;24.45;50.94
69208;SHT31;70114;47.690;8.898;2023-09-30T14:35:00;24.73;50.48
69208;SHT31;70114;47.690;8.898;2023-09-30T14:37:25;24.90;49.68
69208;SHT31;70114;47.690;8.898;2023-09-30T14:39:51;25.03;49.45
69208;SHT31;70114;47.690;8.898;2023-09-30T14:42:16;25.09;49.13
69208;SHT31;70114;47.690;8.898;2023-09-30T14:44:41;25.17;49.14
69208;SHT31;70114;47.690;8.898;2023-09-30T14:47:08;25.20;49.27
69208;SHT31;70114;47.690;8.898;2023-09-30T14:49:34;24.97;49.45
69208;SHT31;70114;47.690;8.898;2023-09-30T14:51:59;24.51;50.74
69208;SHT31;70114;47.690;8.898;2023-09-30T14:54:25;24.45;51.31
69208;SHT31;70114;47.690;8.898;2023-09-30T14:56:51;24.71;50.91
69208;SHT31;70114;47.690;8.898;2023-09-30T14:59:16;24.90;50.26
69208;SHT31;70114;47.690;8.898;2023-09-30T15:01:41;24.94;50.09
69208;SHT31;70114;47.690;8.898;2023-09-30T15:04:08;25.16;49.62
69208;SHT31;70114;47.690;8.898;2023-09-30T15:06:33;25.13;49.91
69208;SHT31;70114;47.690;8.898;2023-09-30T15:09:02;25.24;49.90
69208;SHT31;70114;47.690;8.898;2023-09-30T15:11:29;25.35;49.96
69208;SHT31;70114;47.690;8.898;2023-09-30T15:13:55;25.19;49.13
69208;SHT31;70114;47.690;8.898;2023-09-30T15:16:22;25.13;49.32
69208;SHT31;70114;47.690;8.898;2023-09-30T15:18:49;25.14;49.51
69208;SHT31;70114;47.690;8.898;2023-09-30T15:21:15;25.20;49.40
69208;SHT31;70114;47.690;8.898;2023-09-30T15:23:42;25.02;49.75
69208;SHT31;70114;47.690;8.898;2023-09-30T15:26:07;24.92;49.93
69208;SHT31;70114;47.690;8.898;2023-09-30T15:28:33;24.94;50.04
69208;SHT31;70114;47.690;8.898;2023-09-30T15:30:59;24.45;50.23
69208;SHT31;70114;47.690;8.898;2023-09-30T15:33:26;24.66;49.98
69208;SHT31;70114;47.690;8.898;2023-09-30T15:35:51;24.55;50.12
69208;SHT31;70114;47.690;8.898;2023-09-30T15:38:17;24.49;50.45
69208;SHT31;70114;47.690;8.898;2023-09-30T15:40:55;24.44;51.00
69208;SHT31;70114;47.690;8.898;2023-09-30T15:43:23;24.47;51.46
69208;SHT31;70114;47.690;8.898;2023-09-30T15:45:49;24.39;51.26
69208;SHT31;70114;47.690;8.898;2023-09-30T15:48:15;24.25;51.82